Time;durP1;ratioP1;P1;durP2;ratioP2;P2;SDS_P1;SDS_P2;PMS_P1;PMS_P2;Temp;Humidity;BMP_temperature;BMP_pressure;BME280_temperature;BME280_humidity;BME280_pressure;Samples;Min_cycle;Max_cycle;Signal;HPM_P1;HPM_P2
2023/10/15 00:00:40;;;;;;;0.20;0.10;;;8.60;99.90;;;;;;5059409;28;20041;-72
2023/10/15 00:03:07;;;;;;;0.13;0.10;;;8.60;99.90;;;;;;5060055;28;20098;-72
2023/10/15 00:05:32;;;;;;;0.20;0.10;;;8.60;99.90;;;;;;5057999;28;20092;-72
2023/10/15 00:07:58;;;;;;;0.20;0.10;;;8.50;99.90;;;;;;5062338;28;20424;-72
2023/10/15 00:10:26;;;;;;;0.45;0.20;;;8.50;99.90;;;;;;5058730;28;20049;-72
2023/10/15 00:12:53;;;;;;;0.80;0.20;;;8.50;99.90;;;;;;5062164;28;20533;-72
2023/10/15 00:15:20;;;;;;;1.73;0.15;;;8.50;99.90;;;;;;5067472;28;20507;-72
2023/10/15 00:17:47;;;;;;;0.98;0.40;;;8.50;99.90;;;;;;5044191;28;20037;-72
2023/10/15 00:20:16;;;;;;;1.08;0.22;;;8.50;99.90;;;;;;5078746;28;20037;-73
2023/10/15 00:22:47;;;;;;;0.08;0.08;;;8.50;99.90;;;;;;5044249;28;20032;-73
2023/10/15 00:25:18;;;;;;;0.43;0.10;;;8.50;99.90;;;;;;5042815;28;20490;-73
2023/10/15 00:27:52;;;;;;;2.35;0.22;;;8.60;99.90;;;;;;5062692;28;20546;-73
2023/10/15 00:30:19;;;;;;;0.00;0.00;;;8.60;99.90;;;;;;5060665;28;20040;-73
2023/10/15 00:32:46;;;;;;;0.43;0.00;;;8.60;99.90;;;;;;5062275;28;20036;-73
2023/10/15 00:35:13;;;;;;;0.08;0.00;;;8.50;99.90;;;;;;5063539;28;20370;-72
2023/10/15 00:37:54;;;;;;;0.10;0.10;;;8.50;99.90;;;;;;5058745;28;20090;-73
2023/10/15 00:40:21;;;;;;;0.73;0.10;;;8.50;99.90;;;;;;5058550;28;20061;-73
2023/10/15 00:42:47;;;;;;;0.10;0.10;;;8.50;99.90;;;;;;5061066;28;20028;-73
2023/10/15 00:45:19;;;;;;;0.45;0.20;;;8.40;99.90;;;;;;5060516;28;20090;-73
2023/10/15 00:48:24;;;;;;;0.43;0.10;;;8.40;99.90;;;;;;5092983;28;20045;-72
2023/10/15 00:50:41;;;;;;;0.90;0.10;;;8.40;99.90;;;;;;5061472;28;20048;-72
2023/10/15 00:53:21;;;;;;;1.50;0.10;;;8.40;99.90;;;;;;5060781;28;20056;-72
2023/10/15 00:56:10;;;;;;;0.00;0.00;;;8.40;99.90;;;;;;5060129;28;20049;-72
2023/10/15 00:58:39;;;;;;;0.10;0.10;;;8.40;99.90;;;;;;5059507;28;20036;-73
2023/10/15 01:03:52;;;;;;;0.22;0.10;;;8.40;99.90;;;;;;5058969;28;20148;-72
2023/10/15 01:06:29;;;;;;;0.85;0.20;;;8.40;99.90;;;;;;5056519;28;20049;-72
2023/10/15 01:08:59;;;;;;;0.05;0.05;;;8.50;99.90;;;;;;5057562;28;20527;-72
2023/10/15 01:11:31;;;;;;;0.00;0.00;;;8.50;99.90;;;;;;5076500;28;20071;-72
2023/10/15 01:13:57;;;;;;;0.10;0.10;;;8.50;99.90;;;;;;5044443;28;20036;-72
2023/10/15 01:16:23;;;;;;;1.33;0.28;;;8.50;99.90;;;;;;5060012;28;20037;-73
2023/10/15 01:18:57;;;;;;;0.13;0.10;;;8.50;99.90;;;;;;5059738;28;20040;-73
2023/10/15 01:21:29;;;;;;;2.92;0.10;;;8.50;99.90;;;;;;5059515;28;20075;-73
2023/10/15 01:24:05;;;;;;;3.03;0.28;;;8.50;99.90;;;;;;5061157;28;20047;-72
2023/10/15 01:26:38;;;;;;;0.00;0.00;;;8.50;99.90;;;;;;5044952;28;20090;-72
2023/10/15 01:29:08;;;;;;;0.43;0.00;;;8.50;99.90;;;;;;5043175;28;20074;-73
2023/10/15 01:31:49;;;;;;;0.38;0.13;;;8.50;99.90;;;;;;5057925;28;20050;-72
2023/10/15 01:34:15;;;;;;;0.10;0.10;;;8.50;99.90;;;;;;5041068;28;20135;-73
2023/10/15 01:36:41;;;;;;;0.85;0.10;;;8.50;99.90;;;;;;5062727;28;20071;-73
2023/10/15 01:39:10;;;;;;;0.52;0.17;;;8.50;99.90;;;;;;5093952;28;20051;-72
2023/10/15 01:41:39;;;;;;;1.33;0.47;;;8.50;99.90;;;;;;5056498;28;20394;-73
2023/10/15 01:44:10;;;;;;;0.05;0.05;;;8.50;99.90;;;;;;5057736;28;20029;-72
2023/10/15 01:47:28;;;;;;;0.08;0.08;;;8.50;99.90;;;;;;5040938;28;20113;-73
2023/10/15 01:49:34;;;;;;;0.35;0.15;;;8.50;99.90;;;;;;5055613;28;20055;-73
2023/10/15 01:52:06;;;;;;;0.10;0.10;;;8.50;99.90;;;;;;5075484;28;20087;-73
2023/10/15 01:54:32;;;;;;;0.75;0.10;;;8.50;99.90;;;;;;5061686;28;20490;-73
2023/10/15 01:57:00;;;;;;;0.25;0.08;;;8.40;99.90;;;;;;5045057;28;20076;-73
2023/10/15 01:59:26;;;;;;;3.97;0.38;;;8.40;99.90;;;;;;5044389;28;20036;-72
2023/10/15 02:01:52;;;;;;;0.10;0.10;;;8.30;99.90;;;;;;5058528;28;20524;-72
2023/10/15 02:04:23;;;;;;;0.17;0.10;;;8.30;99.90;;;;;;5059793;28;20040;-72
2023/10/15 02:06:51;;;;;;;0.10;0.00;;;8.30;99.90;;;;;;5059370;28;20099;-73
2023/10/15 02:09:21;;;;;;;2.05;0.17;;;8.30;99.90;;;;;;5059433;28;20425;-73
2023/10/15 02:11:47;;;;;;;1.85;0.47;;;8.20;99.90;;;;;;5064461;28;20056;-73
2023/10/15 02:14:30;;;;;;;0.43;0.20;;;8.20;99.90;;;;;;5056814;28;20041;-73
2023/10/15 02:16:59;;;;;;;1.48;0.25;;;8.20;99.90;;;;;;5059901;28;20045;-73
2023/10/15 02:19:34;;;;;;;0.00;0.00;;;8.10;99.90;;;;;;5059989;28;20086;-73
2023/10/15 02:22:07;;;;;;;1.88;0.20;;;8.10;99.90;;;;;;5076533;28;20033;-72
2023/10/15 02:24:34;;;;;;;0.77;0.10;;;8.20;99.90;;;;;;5098844;28;20120;-72
2023/10/15 02:27:06;;;;;;;0.10;0.00;;;8.10;99.90;;;;;;5047218;28;20048;-72
2023/10/15 02:32:07;;;;;;;0.47;0.28;;;8.20;99.90;;;;;;5063774;28;20040;-72
2023/10/15 02:34:40;;;;;;;3.03;0.10;;;8.20;99.90;;;;;;5058205;28;20036;-72
2023/10/15 02:37:17;;;;;;;0.10;0.00;;;8.20;99.90;;;;;;5063104;28;20041;-73
2023/10/15 02:39:50;;;;;;;0.00;0.00;;;8.20;99.90;;;;;;5064958;28;20052;-73
2023/10/15 02:42:19;;;;;;;0.20;0.00;;;8.20;99.90;;;;;;5065039;28;20423;-73
2023/10/15 02:44:50;;;;;;;3.00;0.50;;;8.30;99.90;;;;;;5060058;28;20037;-73
2023/10/15 02:47:28;;;;;;;0.35;0.17;;;8.30;99.90;;;;;;5066287;28;20040;-73
2023/10/15 02:50:01;;;;;;;0.30;0.10;;;8.20;99.90;;;;;;5080851;28;22193;-73
2023/10/15 02:52:43;;;;;;;0.00;0.00;;;8.20;99.90;;;;;;5066042;28;20032;-73
2023/10/15 02:55:10;;;;;;;0.05;0.00;;;8.20;99.90;;;;;;5046653;28;20041;-73
2023/10/15 02:57:40;;;;;;;0.00;0.00;;;8.20;99.90;;;;;;5064119;28;20494;-73
2023/10/15 03:00:13;;;;;;;0.10;0.10;;;8.20;99.90;;;;;;5063652;28;20044;-73
2023/10/15 03:02:46;;;;;;;0.10;0.10;;;8.10;99.90;;;;;;5063718;28;20037;-73
2023/10/15 03:05:13;;;;;;;0.95;0.20;;;8.10;99.90;;;;;;5098800;28;20580;-73
2023/10/15 03:07:43;;;;;;;0.10;0.10;;;8.10;99.90;;;;;;5063098;28;20588;-73
2023/10/15 03:10:24;;;;;;;1.08;0.40;;;8.10;99.90;;;;;;5062076;28;20044;-73
2023/10/15 03:12:49;;;;;;;0.43;0.10;;;8.10;99.90;;;;;;5062536;28;20079;-73
2023/10/15 03:15:17;;;;;;;0.10;0.05;;;8.10;99.90;;;;;;5060785;28;20069;-73
2023/10/15 03:17:43;;;;;;;0.10;0.00;;;8.10;99.90;;;;;;5045296;28;20037;-73
2023/10/15 03:22:46;;;;;;;0.03;0.03;;;8.10;99.90;;;;;;5062169;28;20037;-73
2023/10/15 03:25:15;;;;;;;0.43;0.05;;;8.10;99.90;;;;;;5060637;28;20547;-73
2023/10/15 03:27:48;;;;;;;1.75;0.20;;;8.10;99.90;;;;;;5063354;28;20113;-72
2023/10/15 03:30:14;;;;;;;0.45;0.10;;;8.10;99.90;;;;;;5064287;28;20524;-72
2023/10/15 03:32:44;;;;;;;0.22;0.05;;;8.00;99.90;;;;;;5063545;28;20682;-73
2023/10/15 03:35:27;;;;;;;0.45;0.10;;;8.00;99.90;;;;;;5047297;28;20037;-72
2023/10/15 03:38:00;;;;;;;0.38;0.00;;;7.90;99.90;;;;;;5061991;28;20079;-73
2023/10/15 03:43:20;;;;;;;0.30;0.20;;;7.90;99.90;;;;;;5049319;28;20072;-73
2023/10/15 03:45:52;;;;;;;0.35;0.10;;;7.90;99.90;;;;;;5064210;28;20117;-73
2023/10/15 03:48:28;;;;;;;1.10;0.15;;;7.90;99.90;;;;;;5059337;28;20520;-73
2023/10/15 03:50:55;;;;;;;0.55;0.10;;;7.90;99.90;;;;;;5062756;28;20036;-73
2023/10/15 03:53:27;;;;;;;0.00;0.00;;;7.90;99.90;;;;;;5063439;28;20036;-73
2023/10/15 03:55:55;;;;;;;0.43;0.20;;;7.90;99.90;;;;;;5062045;28;20628;-73
2023/10/15 03:58:22;;;;;;;0.73;0.30;;;7.80;99.90;;;;;;5046721;28;20033;-73
2023/10/15 04:00:56;;;;;;;0.85;0.08;;;7.90;99.90;;;;;;5063434;28;20121;-73
2023/10/15 04:03:35;;;;;;;0.98;0.22;;;7.90;99.90;;;;;;5067874;28;20040;-73
2023/10/15 04:06:01;;;;;;;0.10;0.03;;;7.90;99.90;;;;;;5061261;28;20024;-73
2023/10/15 04:08:32;;;;;;;1.55;0.10;;;7.90;99.90;;;;;;5097516;27;20452;-73
2023/10/15 04:10:59;;;;;;;1.75;0.13;;;7.90;99.90;;;;;;5064136;28;20049;-73
2023/10/15 04:13:26;;;;;;;0.68;0.17;;;7.90;99.90;;;;;;5091217;28;20047;-73
2023/10/15 04:15:54;;;;;;;0.40;0.20;;;7.90;99.90;;;;;;5044888;28;20048;-73
2023/10/15 04:18:23;;;;;;;0.05;0.05;;;7.80;99.90;;;;;;5061174;28;20044;-73
2023/10/15 04:20:51;;;;;;;0.10;0.10;;;7.80;99.90;;;;;;5061438;28;20037;-73
2023/10/15 04:23:37;;;;;;;0.70;0.10;;;7.80;99.90;;;;;;5061795;28;20037;-73
2023/10/15 04:26:12;;;;;;;0.30;0.30;;;7.80;99.90;;;;;;5057854;28;20037;-73
2023/10/15 04:28:39;;;;;;;;;;;7.80;99.90;;;;;;5059667;28;20033;-73
2023/10/15 04:31:11;;;;;;;0.25;0.03;;;7.90;99.90;;;;;;5058614;28;19916;-73
2023/10/15 04:33:41;;;;;;;2.53;0.40;;;7.90;99.90;;;;;;5094513;27;20541;-73
2023/10/15 04:36:09;;;;;;;0.10;0.10;;;7.90;99.90;;;;;;5059379;28;20547;-73
2023/10/15 04:38:38;;;;;;;0.20;0.20;;;7.80;99.90;;;;;;5095665;28;20037;-73
2023/10/15 04:41:04;;;;;;;0.10;0.10;;;7.80;99.90;;;;;;5058979;28;20778;-73
2023/10/15 04:43:40;;;;;;;0.65;0.10;;;7.80;99.90;;;;;;5059433;28;20112;-73
2023/10/15 04:46:16;;;;;;;0.00;0.00;;;7.80;99.90;;;;;;5059483;28;20032;-73
2023/10/15 04:48:44;;;;;;;0.00;0.00;;;7.80;99.90;;;;;;5061598;28;20073;-73
2023/10/15 04:51:13;;;;;;;0.32;0.10;;;7.80;99.90;;;;;;5059363;28;20051;-73
2023/10/15 04:53:48;;;;;;;2.40;0.10;;;7.80;99.90;;;;;;5061665;28;20502;-73
2023/10/15 04:56:14;;;;;;;0.10;0.10;;;7.80;99.90;;;;;;5065511;28;20681;-73
2023/10/15 04:58:40;;;;;;;0.10;0.10;;;7.80;99.90;;;;;;5066290;28;20032;-73
2023/10/15 05:01:07;;;;;;;0.35;0.05;;;7.80;99.90;;;;;;5065063;28;20040;-73
2023/10/15 05:03:34;;;;;;;0.43;0.00;;;7.80;99.90;;;;;;5047693;28;20552;-73
2023/10/15 05:06:01;;;;;;;0.00;0.00;;;7.70;99.90;;;;;;5048999;28;20062;-73
2023/10/15 05:08:27;;;;;;;0.10;0.00;;;7.70;99.90;;;;;;5078249;28;20032;-73
2023/10/15 05:10:52;;;;;;;0.00;0.00;;;7.70;99.90;;;;;;5060301;28;20089;-73
2023/10/15 05:13:19;;;;;;;0.10;0.10;;;7.70;99.90;;;;;;5068209;28;20127;-73
2023/10/15 05:15:47;;;;;;;0.00;0.00;;;7.70;99.90;;;;;;5062552;28;20033;-73
2023/10/15 05:18:15;;;;;;;2.65;0.30;;;7.70;99.90;;;;;;5062493;28;20499;-73
2023/10/15 05:20:47;;;;;;;1.10;0.00;;;7.70;99.90;;;;;;5066149;28;20040;-73
2023/10/15 05:23:13;;;;;;;0.00;0.00;;;7.70;99.90;;;;;;5066899;28;20036;-73
2023/10/15 05:25:41;;;;;;;0.00;0.00;;;7.70;99.90;;;;;;5059932;28;20048;-73
2023/10/15 05:28:07;;;;;;;2.05;0.20;;;7.70;99.90;;;;;;5071568;28;20051;-73
2023/10/15 05:30:34;;;;;;;0.00;0.00;;;7.70;99.90;;;;;;5062447;28;20043;-73
2023/10/15 05:33:02;;;;;;;0.00;0.00;;;7.70;99.90;;;;;;5068375;28;20050;-73
2023/10/15 05:35:28;;;;;;;0.00;0.00;;;7.70;99.90;;;;;;5061335;28;20036;-73
2023/10/15 05:37:57;;;;;;;0.00;0.00;;;7.70;99.90;;;;;;5048976;28;20056;-73
2023/10/15 05:40:22;;;;;;;0.08;0.08;;;7.70;99.90;;;;;;5093333;28;20033;-73
2023/10/15 05:42:49;;;;;;;0.05;0.00;;;7.70;99.90;;;;;;5064372;28;20040;-73
2023/10/15 05:45:15;;;;;;;4.50;0.38;;;7.70;99.90;;;;;;5061271;28;20036;-73
2023/10/15 05:47:44;;;;;;;0.10;0.00;;;7.70;99.90;;;;;;5047235;28;20040;-72
2023/10/15 05:50:12;;;;;;;0.17;0.10;;;7.70;99.90;;;;;;5067290;28;20048;-73
2023/10/15 05:52:39;;;;;;;0.00;0.00;;;7.70;99.90;;;;;;5063185;28;20131;-73
2023/10/15 05:55:06;;;;;;;0.00;0.00;;;7.70;99.90;;;;;;5060490;28;20098;-73
2023/10/15 05:57:33;;;;;;;1.15;0.10;;;7.70;99.90;;;;;;5076898;28;20072;-73
2023/10/15 05:59:59;;;;;;;0.13;0.13;;;7.70;99.90;;;;;;5069225;28;20040;-73
2023/10/15 06:02:25;;;;;;;0.00;0.00;;;7.70;99.90;;;;;;5047820;28;20036;-73
2023/10/15 06:04:50;;;;;;;0.20;0.20;;;7.70;99.90;;;;;;5104524;27;20405;-73
2023/10/15 06:07:16;;;;;;;0.68;0.22;;;7.70;99.90;;;;;;5048101;28;20040;-73
2023/10/15 06:09:44;;;;;;;2.33;0.50;;;7.70;99.90;;;;;;5069778;28;20193;-73
2023/10/15 06:12:10;;;;;;;0.20;0.10;;;7.70;99.90;;;;;;5065922;28;20047;-73
2023/10/15 06:14:36;;;;;;;0.13;0.13;;;7.70;99.90;;;;;;5053056;28;20098;-73
2023/10/15 06:17:02;;;;;;;0.00;0.00;;;7.70;99.90;;;;;;5071395;28;20565;-73
2023/10/15 06:19:30;;;;;;;0.08;0.05;;;7.70;99.90;;;;;;5069124;28;20032;-73
2023/10/15 06:21:56;;;;;;;0.10;0.10;;;7.70;99.90;;;;;;5062536;28;20029;-73
2023/10/15 06:24:23;;;;;;;1.27;0.10;;;7.70;99.90;;;;;;5066849;28;20041;-73
2023/10/15 06:26:49;;;;;;;0.10;0.10;;;7.70;99.90;;;;;;5065746;28;20048;-73
2023/10/15 06:29:15;;;;;;;0.25;0.10;;;7.80;99.90;;;;;;5069172;28;20043;-73
2023/10/15 06:31:41;;;;;;;2.10;0.22;;;7.70;99.90;;;;;;5068677;28;20036;-73
2023/10/15 06:34:06;;;;;;;0.03;0.03;;;7.80;99.90;;;;;;5067818;28;20036;-73
2023/10/15 06:36:33;;;;;;;0.00;0.00;;;7.70;99.90;;;;;;5062933;28;20040;-73
2023/10/15 06:39:00;;;;;;;0.00;0.00;;;7.80;99.90;;;;;;5065144;28;20037;-73
2023/10/15 06:41:28;;;;;;;0.00;0.00;;;7.80;99.90;;;;;;5067190;28;20490;-73
2023/10/15 06:43:54;;;;;;;0.00;0.00;;;7.80;99.90;;;;;;5068874;28;20062;-73
2023/10/15 06:46:21;;;;;;;0.50;0.05;;;7.80;99.90;;;;;;5062788;28;20599;-73
2023/10/15 06:48:47;;;;;;;0.00;0.00;;;7.80;99.90;;;;;;5066128;28;20236;-72
2023/10/15 06:51:13;;;;;;;0.00;0.00;;;7.80;99.90;;;;;;5064889;28;20256;-73
2023/10/15 06:53:38;;;;;;;0.30;0.00;;;7.80;99.90;;;;;;5062825;28;20052;-73
2023/10/15 06:56:07;;;;;;;0.73;0.17;;;7.70;99.90;;;;;;5058306;28;20520;-73
2023/10/15 06:58:35;;;;;;;1.20;0.17;;;7.80;99.90;;;;;;5061034;28;20137;-74
2023/10/15 07:01:02;;;;;;;0.00;0.00;;;7.80;99.90;;;;;;5059987;28;20078;-73
2023/10/15 07:03:28;;;;;;;0.10;0.00;;;7.90;99.90;;;;;;5060180;28;20079;-73
2023/10/15 07:05:54;;;;;;;0.00;0.00;;;7.90;99.90;;;;;;5058450;28;20075;-73
2023/10/15 07:08:20;;;;;;;0.55;0.10;;;7.90;99.90;;;;;;5074175;28;20032;-73
2023/10/15 07:10:46;;;;;;;1.90;0.17;;;7.90;99.90;;;;;;5060475;28;20048;-74
2023/10/15 07:13:11;;;;;;;0.90;0.08;;;7.90;99.90;;;;;;5060340;28;20450;-73
2023/10/15 07:15:38;;;;;;;0.00;0.00;;;7.90;99.90;;;;;;5059245;28;20041;-73
2023/10/15 07:18:04;;;;;;;0.65;0.10;;;7.90;99.90;;;;;;5043755;28;20040;-73
2023/10/15 07:20:30;;;;;;;0.05;0.00;;;8.00;99.90;;;;;;5043526;28;20255;-73
2023/10/15 07:22:59;;;;;;;0.10;0.00;;;8.00;99.90;;;;;;5063537;28;20686;-74
2023/10/15 07:25:25;;;;;;;0.03;0.00;;;8.00;99.90;;;;;;5062255;28;20028;-73
2023/10/15 07:27:51;;;;;;;0.00;0.00;;;8.00;99.90;;;;;;5092071;28;20075;-73
2023/10/15 07:30:21;;;;;;;0.15;0.15;;;8.00;99.90;;;;;;5044092;28;20071;-73
2023/10/15 07:32:47;;;;;;;1.40;0.10;;;8.00;99.90;;;;;;5094493;28;20052;-73
2023/10/15 07:35:13;;;;;;;0.17;0.10;;;8.00;99.90;;;;;;5046756;28;20039;-73
2023/10/15 07:37:44;;;;;;;0.10;0.00;;;8.10;99.90;;;;;;5057102;28;20040;-74
2023/10/15 07:40:17;;;;;;;0.15;0.10;;;8.10;99.90;;;;;;5089094;28;20068;-73
2023/10/15 07:42:51;;;;;;;0.20;0.20;;;8.10;99.90;;;;;;5064771;28;20036;-73
2023/10/15 07:45:18;;;;;;;0.00;0.00;;;8.00;99.90;;;;;;5043058;28;20055;-73
2023/10/15 07:47:44;;;;;;;1.30;0.20;;;7.90;99.90;;;;;;5063490;28;20080;-73
2023/10/15 07:50:18;;;;;;;0.25;0.22;;;7.80;99.90;;;;;;5077684;28;20094;-72
2023/10/15 07:52:45;;;;;;;0.10;0.08;;;7.70;99.90;;;;;;5058604;28;20123;-73
2023/10/15 07:55:10;;;;;;;0.00;0.00;;;7.70;99.90;;;;;;5060159;28;20128;-73
2023/10/15 07:57:39;;;;;;;0.00;0.00;;;7.60;99.90;;;;;;5058936;28;20033;-73
2023/10/15 08:00:33;;;;;;;0.40;0.30;;;7.60;99.90;;;;;;5056118;28;20037;-72
2023/10/15 08:02:57;;;;;;;0.00;0.00;;;7.60;99.90;;;;;;5058236;28;20166;-73
2023/10/15 08:05:24;;;;;;;0.25;0.20;;;7.60;99.90;;;;;;5067020;28;20043;-73
2023/10/15 08:07:51;;;;;;;7.40;4.63;;;7.70;99.90;;;;;;5059086;28;20051;-73
2023/10/15 08:10:20;;;;;;;5.38;3.53;;;7.70;99.90;;;;;;5039832;28;20131;-73
2023/10/15 08:12:48;;;;;;;7.68;6.20;;;7.80;99.90;;;;;;5033281;28;20032;-73
2023/10/15 08:15:14;;;;;;;5.05;3.08;;;7.80;99.90;;;;;;5057476;28;20063;-72
2023/10/15 08:17:40;;;;;;;3.10;2.63;;;7.90;99.90;;;;;;5041169;28;20634;-73
2023/10/15 08:20:09;;;;;;;0.75;0.50;;;7.90;99.90;;;;;;5057447;28;20037;-72
2023/10/15 08:22:35;;;;;;;1.63;0.75;;;7.90;99.90;;;;;;5091950;28;20051;-73
2023/10/15 08:25:00;;;;;;;0.98;0.50;;;8.00;99.90;;;;;;5058482;28;20189;-73
2023/10/15 08:27:26;;;;;;;7.15;0.20;;;8.00;99.90;;;;;;5056649;28;20113;-72
2023/10/15 08:29:52;;;;;;;0.98;0.70;;;8.00;99.90;;;;;;5054272;28;20433;-73
2023/10/15 08:32:17;;;;;;;1.50;0.70;;;8.00;99.90;;;;;;5046349;28;20066;-73
2023/10/15 08:34:47;;;;;;;1.20;0.82;;;8.10;99.90;;;;;;5045643;28;20222;-73
2023/10/15 08:37:14;;;;;;;1.08;0.32;;;8.10;99.90;;;;;;5057542;28;21403;-73
2023/10/15 08:39:40;;;;;;;1.05;0.40;;;8.20;99.90;;;;;;5086906;28;20032;-73
2023/10/15 08:42:25;;;;;;;0.45;0.25;;;8.30;99.90;;;;;;5059117;28;20366;-73
2023/10/15 08:44:56;;;;;;;0.00;0.00;;;8.40;99.90;;;;;;5047656;28;20067;-73
2023/10/15 08:47:25;;;;;;;0.98;0.65;;;8.40;99.90;;;;;;5060516;28;20131;-73
2023/10/15 08:49:52;;;;;;;0.75;0.30;;;8.40;99.90;;;;;;5044713;28;20036;-73
2023/10/15 08:52:19;;;;;;;0.30;0.13;;;8.40;99.90;;;;;;5058340;28;20028;-73
2023/10/15 08:54:46;;;;;;;0.00;0.00;;;8.40;99.90;;;;;;5060898;28;20041;-73
2023/10/15 08:57:13;;;;;;;0.03;0.03;;;8.30;99.90;;;;;;5070321;28;20048;-73
2023/10/15 08:59:41;;;;;;;0.20;0.10;;;8.20;99.90;;;;;;5042981;28;20066;-73
2023/10/15 09:02:09;;;;;;;0.32;0.22;;;8.30;99.90;;;;;;5053140;28;20044;-73
2023/10/15 09:04:35;;;;;;;2.38;0.68;;;8.40;99.90;;;;;;5050455;28;20040;-73
2023/10/15 09:07:01;;;;;;;6.10;2.90;;;8.50;99.90;;;;;;5056209;28;20044;-73
2023/10/15 09:09:32;;;;;;;1.67;0.95;;;8.60;99.90;;;;;;5054123;28;20047;-73
2023/10/15 09:11:58;;;;;;;3.17;1.45;;;8.60;99.90;;;;;;5057757;28;20044;-73
2023/10/15 09:14:40;;;;;;;1.65;0.38;;;8.60;99.90;;;;;;5095633;28;20517;-73
2023/10/15 09:17:10;;;;;;;0.52;0.22;;;8.60;99.90;;;;;;5093779;28;20486;-73
2023/10/15 09:19:39;;;;;;;1.88;1.38;;;8.60;99.90;;;;;;5061776;28;20094;-73
2023/10/15 09:22:06;;;;;;;1.27;0.65;;;8.60;99.90;;;;;;5059556;28;20081;-73
2023/10/15 09:24:32;;;;;;;1.10;0.50;;;8.60;99.90;;;;;;5054337;28;20040;-74
2023/10/15 09:26:58;;;;;;;0.15;0.15;;;8.70;99.90;;;;;;5053631;28;20452;-74
2023/10/15 09:29:24;;;;;;;0.20;0.20;;;8.70;99.90;;;;;;5054692;28;20276;-73
2023/10/15 09:31:56;;;;;;;1.73;0.77;;;8.80;99.90;;;;;;5056680;28;20096;-74
2023/10/15 09:34:25;;;;;;;1.00;0.20;;;8.80;99.90;;;;;;5087750;28;20040;-75
2023/10/15 09:36:51;;;;;;;5.43;0.47;;;8.90;99.90;;;;;;5055820;28;20505;-75
2023/10/15 09:39:17;;;;;;;0.88;0.10;;;8.90;99.90;;;;;;5041981;28;20044;-74
2023/10/15 09:41:42;;;;;;;0.10;0.03;;;9.00;99.90;;;;;;5038971;28;20098;-74
2023/10/15 09:44:14;;;;;;;0.00;0.00;;;9.00;99.90;;;;;;5059279;28;20037;-74
2023/10/15 09:46:43;;;;;;;0.65;0.43;;;9.00;99.90;;;;;;5037713;28;20036;-74
2023/10/15 09:49:10;;;;;;;1.70;0.55;;;9.10;99.90;;;;;;5070261;28;20040;-74
2023/10/15 09:51:37;;;;;;;0.20;0.20;;;9.10;99.90;;;;;;5070356;28;20163;-74
2023/10/15 09:54:03;;;;;;;0.98;0.50;;;9.20;99.90;;;;;;5043975;28;20059;-74
2023/10/15 09:56:30;;;;;;;0.70;0.10;;;9.20;99.90;;;;;;5089909;28;20052;-74
2023/10/15 09:58:56;;;;;;;1.90;0.40;;;9.20;99.90;;;;;;5056783;28;20727;-74
2023/10/15 10:01:26;;;;;;;1.35;0.10;;;9.30;99.90;;;;;;5060274;28;20039;-74
2023/10/15 10:04:04;;;;;;;0.28;0.03;;;9.30;99.90;;;;;;5044201;28;20452;-74
2023/10/15 10:06:48;;;;;;;0.08;0.08;;;9.30;99.90;;;;;;5089459;28;20057;-74
2023/10/15 10:09:26;;;;;;;0.73;0.20;;;9.20;99.90;;;;;;5056711;28;20032;-74
2023/10/15 10:12:19;;;;;;;0.90;0.85;;;9.20;99.90;;;;;;5041001;28;20501;-74
2023/10/15 10:15:28;;;;;;;0.00;0.00;;;9.20;99.90;;;;;;5057748;28;20062;-73
2023/10/15 10:17:55;;;;;;;0.03;0.00;;;9.30;99.90;;;;;;5056296;28;20406;-73
2023/10/15 10:20:31;;;;;;;0.10;0.00;;;9.30;99.90;;;;;;5056433;28;20028;-74
2023/10/15 10:23:04;;;;;;;0.00;0.00;;;9.40;99.90;;;;;;5056429;28;20037;-73
2023/10/15 10:25:39;;;;;;;0.10;0.10;;;9.40;99.90;;;;;;5055775;28;20040;-73
2023/10/15 10:28:25;;;;;;;4.88;0.20;;;9.50;99.90;;;;;;5058565;28;20075;-74
2023/10/15 10:30:55;;;;;;;0.32;0.32;;;9.50;99.90;;;;;;5054054;28;20574;-74
2023/10/15 10:33:46;;;;;;;0.47;0.15;;;9.60;99.90;;;;;;5039257;28;20131;-73
2023/10/15 10:36:12;;;;;;;0.00;0.00;;;9.60;99.90;;;;;;5058930;28;20040;-74
2023/10/15 10:38:41;;;;;;;1.98;0.08;;;9.60;99.90;;;;;;5036845;28;20041;-74
2023/10/15 10:41:14;;;;;;;1.52;0.38;;;9.60;99.90;;;;;;5054812;28;20047;-73
2023/10/15 10:43:43;;;;;;;0.38;0.10;;;9.50;99.90;;;;;;5057458;28;20490;-73
2023/10/15 10:46:21;;;;;;;0.45;0.32;;;9.50;99.90;;;;;;5044235;28;20184;-73
2023/10/15 10:49:06;;;;;;;0.05;0.05;;;9.50;99.90;;;;;;5061382;28;20040;-74
2023/10/15 10:51:33;;;;;;;0.13;0.10;;;9.50;99.90;;;;;;5089022;28;20044;-73
2023/10/15 10:53:59;;;;;;;0.00;0.00;;;9.50;99.90;;;;;;5052484;28;20040;-72
2023/10/15 10:56:40;;;;;;;0.65;0.10;;;9.50;99.90;;;;;;5089092;28;20166;-73
2023/10/15 10:59:06;;;;;;;0.30;0.10;;;9.50;99.90;;;;;;5095829;28;20044;-72
2023/10/15 11:01:39;;;;;;;0.00;0.00;;;9.50;99.90;;;;;;5090674;28;20045;-73
2023/10/15 11:04:05;;;;;;;0.35;0.15;;;9.50;99.90;;;;;;5042532;28;20047;-73
2023/10/15 11:06:33;;;;;;;0.10;0.10;;;9.50;99.90;;;;;;5057543;28;20048;-73
2023/10/15 11:09:00;;;;;;;0.40;0.25;;;9.50;99.90;;;;;;5059860;28;20446;-73
2023/10/15 11:11:26;;;;;;;0.10;0.10;;;9.50;99.90;;;;;;5060591;28;20079;-73
2023/10/15 11:13:54;;;;;;;0.50;0.10;;;9.60;99.90;;;;;;5043970;28;20151;-73
2023/10/15 11:16:21;;;;;;;0.10;0.10;;;9.60;99.90;;;;;;5059754;28;20033;-73
2023/10/15 11:18:47;;;;;;;2.70;0.40;;;9.60;99.90;;;;;;5045039;28;20418;-74
2023/10/15 11:21:13;;;;;;;0.60;0.13;;;9.60;99.90;;;;;;5060630;28;20043;-73
2023/10/15 11:23:39;;;;;;;0.90;0.10;;;9.60;99.90;;;;;;5041348;28;20033;-74
2023/10/15 11:26:08;;;;;;;2.72;0.20;;;9.70;99.90;;;;;;5076516;28;20443;-73
2023/10/15 11:28:34;;;;;;;0.30;0.30;;;9.70;99.90;;;;;;5058444;28;20152;-73
2023/10/15 11:31:02;;;;;;;0.05;0.05;;;9.80;99.90;;;;;;5043402;28;20089;-73
2023/10/15 11:33:28;;;;;;;0.00;0.00;;;9.80;99.90;;;;;;5058790;28;20048;-73
2023/10/15 11:35:55;;;;;;;0.05;0.05;;;9.90;99.90;;;;;;5077604;28;20045;-73
2023/10/15 11:38:31;;;;;;;0.60;0.30;;;9.90;99.90;;;;;;5059783;28;20524;-73
2023/10/15 11:40:57;;;;;;;;;;;9.90;99.90;;;;;;5055920;28;20032;-73
2023/10/15 11:43:22;;;;;;;1.17;0.22;;;10.00;99.90;;;;;;5057852;28;19967;-73
2023/10/15 11:45:48;;;;;;;0.10;0.10;;;10.00;99.90;;;;;;5058042;28;20305;-73
2023/10/15 11:48:14;;;;;;;2.92;0.32;;;10.00;99.90;;;;;;5059341;28;20127;-73
2023/10/15 11:50:41;;;;;;;1.00;0.10;;;10.00;99.90;;;;;;5057879;28;20086;-73
2023/10/15 11:53:16;;;;;;;0.30;0.10;;;10.00;99.90;;;;;;5060302;28;20048;-73
2023/10/15 11:55:47;;;;;;;0.10;0.10;;;10.00;99.90;;;;;;5053217;28;20130;-72
2023/10/15 11:58:19;;;;;;;1.02;0.08;;;10.00;99.90;;;;;;5055656;28;20493;-73
2023/10/15 12:00:48;;;;;;;0.73;0.17;;;10.00;99.90;;;;;;5089635;28;20406;-73
2023/10/15 12:03:21;;;;;;;0.30;0.10;;;10.10;99.90;;;;;;5059036;28;20095;-73
2023/10/15 12:05:47;;;;;;;0.43;0.10;;;10.10;99.90;;;;;;5091122;28;20078;-73
2023/10/15 12:08:13;;;;;;;1.65;0.30;;;10.10;99.90;;;;;;5058239;28;20047;-73
2023/10/15 12:10:42;;;;;;;0.38;0.30;;;10.10;99.90;;;;;;5055650;28;20405;-73
2023/10/15 12:13:14;;;;;;;0.43;0.20;;;10.20;99.90;;;;;;5055312;28;20444;-75
2023/10/15 12:15:40;;;;;;;1.48;0.10;;;10.20;99.90;;;;;;5054469;28;20108;-73
2023/10/15 12:18:06;;;;;;;1.08;0.10;;;10.30;99.90;;;;;;5057121;28;20051;-73
2023/10/15 12:20:32;;;;;;;0.17;0.10;;;10.30;99.90;;;;;;5053591;28;20033;-74
2023/10/15 12:22:59;;;;;;;1.40;0.47;;;10.30;99.90;;;;;;5054141;28;20281;-74
2023/10/15 12:25:25;;;;;;;0.13;0.10;;;10.40;99.90;;;;;;5055319;28;20061;-74
2023/10/15 12:27:51;;;;;;;0.17;0.13;;;10.40;99.90;;;;;;5035211;28;20397;-73
2023/10/15 12:30:23;;;;;;;2.55;0.30;;;10.40;99.90;;;;;;5054802;28;20044;-73
2023/10/15 12:32:55;;;;;;;1.40;0.10;;;10.40;99.90;;;;;;5042705;28;20036;-73
2023/10/15 12:35:21;;;;;;;0.55;0.17;;;10.40;99.90;;;;;;5040182;28;20037;-73
2023/10/15 12:37:49;;;;;;;1.27;0.20;;;10.30;99.90;;;;;;5055806;28;20040;-74
2023/10/15 12:40:21;;;;;;;2.25;0.28;;;10.30;99.90;;;;;;5059615;28;20091;-74
2023/10/15 12:42:47;;;;;;;5.57;0.45;;;10.20;99.90;;;;;;5058432;28;20422;-73
2023/10/15 12:45:13;;;;;;;0.65;0.45;;;10.20;99.90;;;;;;5054762;28;20036;-73
2023/10/15 12:47:39;;;;;;;0.00;0.00;;;10.10;99.90;;;;;;5057643;28;20044;-73
2023/10/15 12:50:14;;;;;;;0.43;0.10;;;10.10;99.90;;;;;;5090938;28;20101;-74
2023/10/15 12:52:47;;;;;;;0.30;0.10;;;10.10;99.90;;;;;;5057473;28;20071;-74
2023/10/15 12:55:17;;;;;;;5.40;0.43;;;10.10;99.90;;;;;;5073045;28;20056;-74
2023/10/15 12:57:42;;;;;;;2.30;0.10;;;10.10;99.90;;;;;;5052083;28;20589;-74
2023/10/15 13:00:16;;;;;;;1.10;0.10;;;10.00;99.90;;;;;;5051606;28;20127;-74
2023/10/15 13:02:49;;;;;;;0.00;0.00;;;10.10;99.90;;;;;;5040712;28;20569;-73
2023/10/15 13:05:19;;;;;;;3.83;0.30;;;10.10;99.90;;;;;;5057198;28;20398;-73
2023/10/15 13:07:45;;;;;;;0.60;0.15;;;10.20;99.90;;;;;;5054553;28;20402;-73
2023/10/15 13:10:13;;;;;;;1.35;0.20;;;10.30;99.90;;;;;;5057301;28;20496;-73
2023/10/15 13:12:39;;;;;;;0.10;0.03;;;10.30;99.90;;;;;;5039473;28;20494;-73
2023/10/15 13:15:10;;;;;;;2.70;0.30;;;10.30;99.90;;;;;;5053851;28;20516;-73
2023/10/15 13:17:37;;;;;;;0.77;0.17;;;10.20;99.90;;;;;;5072015;28;20570;-73